Time;durP1;ratioP1;P1;durP2;ratioP2;P2;SDS_P1;SDS_P2;PMS_P1;PMS_P2;Temp;Humidity;BMP_temperature;BMP_pressure;BME280_temperature;BME280_humidity;BME280_pressure;Samples;Min_cycle;Max_cycle;Signal;HPM_P1;HPM_P2
2023/07/02 00:00:01;;;;;;;;;;;;;;;16.08;100.00;100580.59;5052326;28;20392;-47
2023/07/02 00:02:26;;;;;;;22.85;10.05;;;;;;;15.96;100.00;100577.09;5052374;28;20366;-47
2023/07/02 00:04:52;;;;;;;24.00;10.60;;;;;;;15.93;100.00;100569.31;5052528;28;20033;-45
2023/07/02 00:07:17;;;;;;;24.55;10.25;;;;;;;15.91;100.00;100571.03;5051728;28;20441;-48
2023/07/02 00:09:42;;;;;;;24.95;11.27;;;;;;;15.91;100.00;100577.97;5052154;28;20036;-48
2023/07/02 00:12:08;;;;;;;22.48;11.15;;;;;;;15.91;100.00;100573.63;5052594;28;20017;-46
2023/07/02 00:14:34;;;;;;;28.50;11.75;;;;;;;15.90;100.00;100563.22;5051444;28;20405;-48
2023/07/02 00:16:59;;;;;;;23.63;12.13;;;;;;;15.90;100.00;100565.81;5052504;28;20481;-47
2023/07/02 00:19:25;;;;;;;24.42;11.07;;;;;;;15.88;100.00;100572.75;5051904;28;20098;-46
2023/07/02 00:21:53;;;;;;;24.27;11.80;;;;;;;15.88;100.00;100577.94;5051689;28;20072;-47
2023/07/02 00:24:18;;;;;;;;;;;;;;;15.94;100.00;100567.56;5052968;28;20044;-45
2023/07/02 00:26:43;;;;;;;25.87;12.07;;;;;;;15.88;100.00;100546.75;5052013;28;20320;-46
2023/07/02 00:29:09;;;;;;;31.05;11.48;;;;;;;15.84;100.00;100537.22;5052039;28;20763;-47
2023/07/02 00:31:36;;;;;;;25.17;11.80;;;;;;;15.78;100.00;100541.50;5052082;28;20041;-45
2023/07/02 00:34:02;;;;;;;27.55;12.73;;;;;;;15.69;100.00;100549.28;5051987;28;20070;-48
2023/07/02 00:36:28;;;;;;;27.83;12.23;;;;;;;15.61;100.00;100558.78;5051316;28;20461;-46
2023/07/02 00:38:54;;;;;;;28.42;12.05;;;;;;;15.52;100.00;100572.56;5052363;28;20025;-48
2023/07/02 00:41:20;;;;;;;26.15;11.98;;;;;;;15.51;100.00;100575.19;5052081;28;20131;-43
2023/07/02 00:43:45;;;;;;;23.30;11.45;;;;;;;15.44;100.00;100572.53;5051523;28;20021;-44
2023/07/02 00:46:24;;;;;;;21.17;12.07;;;;;;;15.33;100.00;100574.22;5052216;28;20103;-44
2023/07/02 00:48:52;;;;;;;23.98;12.38;;;;;;;15.38;100.00;100580.28;5054327;28;20570;-47
2023/07/02 00:51:20;;;;;;;23.05;12.52;;;;;;;15.41;100.00;100582.03;5056121;28;20025;-47
2023/07/02 00:53:47;;;;;;;24.65;12.70;;;;;;;15.38;100.00;100590.69;5055450;28;20358;-46
2023/07/02 00:56:12;;;;;;;27.43;14.57;;;;;;;15.44;100.00;100593.31;5055235;28;20025;-45
2023/07/02 00:58:40;;;;;;;25.92;13.77;;;;;;;15.47;100.00;100588.13;5055466;28;20278;-47
2023/07/02 01:01:06;;;;;;;27.70;13.48;;;;;;;15.51;100.00;100588.16;5055503;28;20037;-47
2023/07/02 01:03:32;;;;;;;34.08;15.25;;;;;;;15.53;100.00;100587.31;5054819;28;20021;-45
2023/07/02 01:06:03;;;;;;;28.10;14.57;;;;;;;15.55;100.00;100587.31;5055331;28;20443;-45
2023/07/02 01:08:28;;;;;;;35.47;15.80;;;;;;;15.58;100.00;100587.31;5055335;28;20017;-46
2023/07/02 01:10:54;;;;;;;28.38;15.65;;;;;;;15.58;100.00;100582.13;5054708;28;20078;-47
2023/07/02 01:13:23;;;;;;;31.38;16.73;;;;;;;15.55;100.00;100589.91;5055535;28;20013;-49
2023/07/02 01:15:49;;;;;;;31.20;15.68;;;;;;;15.53;100.00;100591.63;5055349;28;20135;-48
2023/07/02 01:18:15;;;;;;;31.77;15.55;;;;;;;15.51;100.00;100598.56;5054828;28;20508;-46
2023/07/02 01:20:42;;;;;;;30.23;16.88;;;;;;;15.46;100.00;100596.78;5055125;28;20056;-47
2023/07/02 01:23:09;;;;;;;32.13;17.17;;;;;;;15.41;100.00;100593.28;5055079;28;20072;-48
2023/07/02 01:25:36;;;;;;;35.88;17.40;;;;;;;15.37;100.00;100591.53;5054498;28;20040;-46
2023/07/02 01:28:02;;;;;;;32.37;17.87;;;;;;;15.29;100.00;100594.09;5055146;28;20108;-48
2023/07/02 01:30:27;;;;;;;34.92;18.38;;;;;;;15.27;100.00;100598.41;5054562;28;20461;-47
2023/07/02 01:32:53;;;;;;;36.75;17.65;;;;;;;15.22;100.00;100607.00;5054473;28;20040;-46
2023/07/02 01:35:18;;;;;;;38.83;18.45;;;;;;;15.20;100.00;100608.75;5055247;28;20028;-47
2023/07/02 01:37:44;;;;;;;35.38;19.48;;;;;;;15.15;100.00;100609.56;5053904;28;20063;-44
2023/07/02 01:40:09;;;;;;;41.15;20.02;;;;;;;15.15;100.00;100617.34;5054881;28;20064;-46
2023/07/02 01:42:35;;;;;;;44.25;20.27;;;;;;;15.14;100.00;100610.44;5054638;28;20055;-46
2023/07/02 01:45:00;;;;;;;39.97;19.25;;;;;;;15.09;100.00;100614.75;5053964;28;20017;-44
2023/07/02 01:47:26;;;;;;;34.45;18.70;;;;;;;15.07;100.00;100605.19;5054598;28;20036;-47
2023/07/02 01:49:51;;;;;;;36.65;19.60;;;;;;;15.03;100.00;100612.09;5055003;28;20453;-43
2023/07/02 01:52:17;;;;;;;38.72;20.35;;;;;;;14.97;100.00;100607.69;5053988;28;20104;-47
2023/07/02 01:54:43;;;;;;;40.45;19.63;;;;;;;14.95;100.00;100612.03;5054375;28;20033;-46
2023/07/02 01:57:08;;;;;;;43.92;20.17;;;;;;;14.94;100.00;100614.63;5054641;28;20032;-46
2023/07/02 01:59:34;;;;;;;38.92;20.05;;;;;;;14.90;100.00;100612.84;5052638;28;20021;-48
2023/07/02 02:01:59;;;;;;;43.72;21.38;;;;;;;14.89;100.00;100621.50;5054799;28;20025;-44
2023/07/02 02:04:25;;;;;;;42.20;20.65;;;;;;;14.89;100.00;100621.50;5054342;28;20057;-48
2023/07/02 02:06:52;;;;;;;42.03;20.98;;;;;;;14.88;100.00;100619.75;5053829;28;20388;-45
2023/07/02 02:09:17;;;;;;;43.45;20.67;;;;;;;14.87;100.00;100621.47;5054724;28;20041;-47
2023/07/02 02:11:46;;;;;;;42.45;20.55;;;;;;;14.87;100.00;100615.41;5054054;28;20033;-46
2023/07/02 02:14:12;;;;;;;39.20;20.45;;;;;;;14.87;100.00;100616.28;5053535;28;20456;-47
2023/07/02 02:16:37;;;;;;;38.53;20.25;;;;;;;14.84;100.00;100616.25;5054106;28;20028;-48
2023/07/02 02:19:03;;;;;;;39.85;20.63;;;;;;;14.80;100.00;100620.53;5054176;28;20032;-47
2023/07/02 02:21:29;;;;;;;40.53;19.40;;;;;;;14.78;100.00;100626.56;5053296;28;20473;-47
2023/07/02 02:23:54;;;;;;;40.83;21.38;;;;;;;14.69;100.00;100616.97;5053893;28;20098;-46
2023/07/02 02:26:21;;;;;;;41.35;20.50;;;;;;;14.62;100.00;100621.22;5053818;28;20105;-46
2023/07/02 02:28:47;;;;;;;46.25;21.88;;;;;;;14.57;100.00;100619.44;5053453;28;20147;-46
2023/07/02 02:31:12;;;;;;;42.28;21.23;;;;;;;14.50;100.00;100621.13;5054457;28;20100;-45
2023/07/02 02:33:37;;;;;;;40.10;21.08;;;;;;;14.45;100.00;100625.41;5053619;28;20389;-44
2023/07/02 02:36:03;;;;;;;39.53;21.70;;;;;;;14.46;100.00;100625.41;5053649;28;20098;-48
2023/07/02 02:38:28;;;;;;;36.88;21.13;;;;;;;14.41;100.00;100632.25;5053528;28;20392;-48
2023/07/02 02:40:54;;;;;;;38.10;20.70;;;;;;;14.38;100.00;100628.75;5053576;28;20036;-48
2023/07/02 02:43:20;;;;;;;43.83;22.88;;;;;;;14.33;100.00;100633.88;5053230;28;20032;-47
2023/07/02 02:45:46;;;;;;;44.80;22.52;;;;;;;14.29;100.00;100632.13;5053660;28;20036;-47
2023/07/02 02:48:11;;;;;;;43.55;22.67;;;;;;;14.26;100.00;100634.69;5053069;28;20025;-46
2023/07/02 02:50:41;;;;;;;45.25;23.25;;;;;;;14.21;100.00;100644.13;5053449;28;20031;-47
2023/07/02 02:53:10;;;;;;;40.00;22.52;;;;;;;14.11;100.00;100644.03;5053644;28;20134;-45
2023/07/02 02:55:36;;;;;;;45.88;22.17;;;;;;;14.11;100.00;100649.22;5052392;28;20029;-48
2023/07/02 02:58:01;;;;;;;42.10;23.13;;;;;;;14.10;100.00;100647.47;5053491;28;20021;-46
2023/07/02 03:00:27;;;;;;;40.80;22.70;;;;;;;14.10;100.00;100652.66;5053214;28;20082;-47
2023/07/02 03:02:52;;;;;;;49.50;23.80;;;;;;;14.02;100.00;100649.13;5052558;28;20029;-47
2023/07/02 03:05:17;;;;;;;44.75;22.90;;;;;;;14.03;100.00;100652.56;5053487;28;20496;-46
2023/07/02 03:07:43;;;;;;;46.72;21.85;;;;;;;13.99;100.00;100659.41;5053051;28;20025;-48
2023/07/02 03:10:09;;;;;;;43.05;22.00;;;;;;;13.96;100.00;100660.25;5052449;28;20448;-48
2023/07/02 03:12:34;;;;;;;37.67;21.63;;;;;;;13.98;100.00;100665.44;5052868;28;20107;-45
2023/07/02 03:14:59;;;;;;;42.80;21.98;;;;;;;13.95;100.00;100662.84;5053144;28;20071;-47
2023/07/02 03:17:25;;;;;;;40.95;21.48;;;;;;;13.94;100.00;100668.84;5052562;28;20528;-47
2023/07/02 03:19:51;;;;;;;43.80;21.98;;;;;;;13.90;100.00;100673.13;5053239;28;20055;-44
2023/07/02 03:22:16;;;;;;;56.58;21.27;;;;;;;13.89;100.00;100674.00;5052750;28;20049;-47
2023/07/02 03:24:41;;;;;;;42.03;21.52;;;;;;;13.92;100.00;100678.34;5052217;28;20021;-48
2023/07/02 03:27:07;;;;;;;37.60;20.83;;;;;;;13.89;100.00;100679.19;5053175;28;20021;-43
2023/07/02 03:29:34;;;;;;;43.03;20.98;;;;;;;13.82;100.00;100678.19;5052577;28;20452;-47
2023/07/02 03:31:59;;;;;;;38.10;20.13;;;;;;;13.78;100.00;100691.97;5052676;28;20025;-48
2023/07/02 03:34:25;;;;;;;37.63;18.60;;;;;;;13.74;100.00;100686.75;5052841;28;20469;-48
2023/07/02 03:36:50;;;;;;;38.90;20.25;;;;;;;13.69;100.00;100685.81;5052722;28;20025;-46
2023/07/02 03:39:19;;;;;;;35.88;19.85;;;;;;;13.69;100.00;100689.25;5052026;28;20052;-44
2023/07/02 03:41:44;;;;;;;36.42;20.10;;;;;;;13.69;100.00;100691.84;5052758;28;20078;-44
2023/07/02 03:44:10;;;;;;;40.50;22.23;;;;;;;13.71;100.00;100695.34;5052524;28;20029;-47
2023/07/02 03:46:35;;;;;;;45.38;21.52;;;;;;;13.72;100.00;100702.25;5051923;28;20029;-46
2023/07/02 03:49:01;;;;;;;41.50;21.17;;;;;;;13.74;100.00;100697.97;5052888;28;20028;-47
2023/07/02 03:51:26;;;;;;;42.75;22.38;;;;;;;13.68;100.00;100695.28;5051733;28;20064;-45
2023/07/02 03:53:51;;;;;;;49.63;23.38;;;;;;;13.73;100.00;100698.81;5052721;28;20044;-44
2023/07/02 03:56:17;;;;;;;41.45;20.67;;;;;;;13.73;100.00;100698.81;5052625;28;20527;-48
2023/07/02 03:58:42;;;;;;;39.55;20.77;;;;;;;13.76;100.00;100706.63;5051755;28;20103;-48
2023/07/02 04:01:08;;;;;;;39.53;21.13;;;;;;;13.77;100.00;100707.50;5052695;28;20059;-43
2023/07/02 04:03:33;;;;;;;40.40;21.77;;;;;;;13.76;100.00;100701.47;5052360;28;20071;-43
2023/07/02 04:05:58;;;;;;;36.03;19.23;;;;;;;13.78;100.00;100704.06;5051865;28;20484;-47
2023/07/02 04:08:25;;;;;;;43.70;20.73;;;;;;;13.75;100.00;100707.47;5052211;28;20025;-49
2023/07/02 04:10:51;;;;;;;34.57;19.03;;;;;;;13.73;100.00;100701.41;5052768;28;20013;-47
2023/07/02 04:13:16;;;;;;;34.80;19.02;;;;;;;13.71;100.00;100710.00;5051932;28;20369;-49
2023/07/02 04:15:42;;;;;;;40.67;19.40;;;;;;;13.68;100.00;100716.00;5052431;28;20109;-43
2023/07/02 04:18:07;;;;;;;39.60;18.83;;;;;;;13.70;100.00;100709.13;5052242;28;20059;-44
2023/07/02 04:20:32;;;;;;;35.03;18.52;;;;;;;13.69;100.00;100706.53;5051564;28;20033;-44
2023/07/02 04:22:58;;;;;;;37.53;19.27;;;;;;;13.66;100.00;100709.94;5053840;28;20048;-48
2023/07/02 04:25:23;;;;;;;35.67;17.05;;;;;;;13.64;100.00;100714.22;5055705;28;20484;-48
2023/07/02 04:27:49;;;;;;;40.05;17.55;;;;;;;13.62;100.00;100718.50;5055726;28;20048;-43
2023/07/02 04:30:14;;;;;;;36.05;17.95;;;;;;;13.62;100.00;100721.97;5056168;28;20025;-47
2023/07/02 04:32:40;;;;;;;36.08;17.38;;;;;;;13.62;100.00;100718.50;5055838;28;20025;-47
2023/07/02 04:35:07;;;;;;;33.75;17.42;;;;;;;13.64;100.00;100719.41;5055710;28;20171;-44
2023/07/02 04:37:32;;;;;;;31.45;16.00;;;;;;;13.66;100.00;100718.56;5055809;28;20504;-44
2023/07/02 04:39:57;;;;;;;35.00;16.35;;;;;;;13.70;100.00;100729.84;5055787;28;20707;-46
2023/07/02 04:42:27;;;;;;;31.88;15.18;;;;;;;13.74;100.00;100731.63;5055524;28;20036;-46
2023/07/02 04:44:53;;;;;;;30.75;15.05;;;;;;;13.79;100.00;100729.97;5056218;28;20087;-46
2023/07/02 04:47:19;;;;;;;30.15;14.93;;;;;;;13.80;100.00;100729.13;5055908;28;20108;-43
2023/07/02 04:49:44;;;;;;;33.67;14.38;;;;;;;13.83;100.00;100736.09;5055045;28;20159;-44
2023/07/02 04:52:10;;;;;;;32.47;14.75;;;;;;;13.84;100.00;100737.84;5055771;28;20029;-44
2023/07/02 04:54:35;;;;;;;32.03;14.27;;;;;;;13.90;100.00;100740.47;5054769;28;20033;-43
2023/07/02 04:57:00;;;;;;;32.40;14.88;;;;;;;13.97;100.00;100744.06;5056050;28;20021;-45
2023/07/02 04:59:26;;;;;;;30.40;14.13;;;;;;;13.99;99.97;100743.22;5055574;28;20053;-47
2023/07/02 05:01:51;;;;;;;30.33;14.23;;;;;;;14.03;99.73;100741.53;5055043;28;20020;-48
2023/07/02 05:04:16;;;;;;;33.40;14.63;;;;;;;14.04;98.88;100740.69;5055690;28;20107;-43
2023/07/02 05:06:41;;;;;;;30.90;15.15;;;;;;;14.07;98.10;100748.53;5055262;28;20032;-43
2023/07/02 05:09:07;;;;;;;29.55;13.52;;;;;;;14.08;97.25;100752.81;5055084;28;20025;-44
2023/07/02 05:11:32;;;;;;;32.92;14.18;;;;;;;14.10;97.83;100751.13;5055431;28;20021;-47
2023/07/02 05:13:58;;;;;;;32.75;13.57;;;;;;;14.14;95.87;100746.88;5055663;28;20100;-47
2023/07/02 05:16:23;;;;;;;32.10;13.77;;;;;;;14.22;96.04;100759.94;5054259;28;20033;-47
2023/07/02 05:18:48;;;;;;;28.20;13.32;;;;;;;14.28;94.51;100752.22;5055263;28;20032;-49
2023/07/02 05:21:17;;;;;;;27.80;13.10;;;;;;;14.37;94.48;100760.13;5055227;28;20033;-47
2023/07/02 05:23:42;;;;;;;28.15;13.15;;;;;;;14.44;94.52;100761.06;5054232;28;20049;-44
2023/07/02 05:26:08;;;;;;;32.10;12.88;;;;;;;14.54;96.00;100769.81;5055474;28;20358;-48
2023/07/02 05:28:33;;;;;;;32.90;12.30;;;;;;;14.60;93.58;100768.19;5054660;28;20056;-46
2023/07/02 05:30:58;;;;;;;28.90;14.23;;;;;;;14.66;92.95;100767.41;5054763;28;20472;-45
2023/07/02 05:33:24;;;;;;;26.52;12.88;;;;;;;14.75;93.06;100775.28;5054470;28;20029;-44
2023/07/02 05:35:49;;;;;;;27.75;13.10;;;;;;;14.81;92.00;100783.16;5054075;28;20017;-44
2023/07/02 05:38:15;;;;;;;31.38;13.05;;;;;;;14.84;90.35;100782.31;5054521;28;20079;-47
2023/07/02 05:40:40;;;;;;;33.80;13.20;;;;;;;14.97;90.46;100784.19;5054521;28;20025;-46
2023/07/02 05:43:06;;;;;;;35.53;12.57;;;;;;;15.03;90.51;100788.56;5054723;28;20029;-48
2023/07/02 05:45:31;;;;;;;31.48;12.35;;;;;;;15.12;89.84;100798.19;5054189;28;20021;-47
2023/07/02 05:47:56;;;;;;;28.35;11.77;;;;;;;15.22;90.92;100791.34;5054736;28;20025;-44
2023/07/02 05:50:22;;;;;;;28.55;12.73;;;;;;;15.25;87.92;100794.84;5054470;28;20064;-47
2023/07/02 05:52:47;;;;;;;32.30;12.00;;;;;;;15.34;88.39;100798.38;5054003;28;20029;-48
2023/07/02 05:55:12;;;;;;;28.77;12.18;;;;;;;15.33;86.85;100792.31;5054609;28;20103;-45
2023/07/02 05:57:38;;;;;;;26.73;13.18;;;;;;;15.40;86.90;100785.44;5054276;28;20040;-46
2023/07/02 06:00:07;;;;;;;28.27;11.63;;;;;;;15.41;86.30;100788.06;5054199;28;20154;-48
2023/07/02 06:02:33;;;;;;;28.50;11.80;;;;;;;15.38;83.77;100777.66;5054309;28;20013;-43
2023/07/02 06:04:58;;;;;;;30.63;11.05;;;;;;;15.36;85.53;100792.34;5053794;28;20021;-44
2023/07/02 06:07:24;;;;;;;25.55;11.32;;;;;;;15.37;84.53;100791.50;5054085;28;20024;-44
2023/07/02 06:09:50;;;;;;;25.80;10.30;;;;;;;15.39;84.15;100804.47;5054693;28;20049;-44
2023/07/02 06:12:15;;;;;;;33.00;11.35;;;;;;;15.45;83.66;100801.94;5053833;28;20823;-43
2023/07/02 06:14:40;;;;;;;30.67;11.32;;;;;;;15.58;85.47;100805.50;5054209;28;20032;-44
2023/07/02 06:17:07;;;;;;;21.85;10.75;;;;;;;15.62;81.79;100815.06;5054271;28;20044;-47
2023/07/02 06:19:32;;;;;;;27.00;11.40;;;;;;;15.63;82.31;100811.63;5053205;28;20055;-44
2023/07/02 06:21:58;;;;;;;27.00;10.63;;;;;;;15.72;83.71;100810.81;5053893;28;20492;-48
2023/07/02 06:24:23;;;;;;;26.83;10.63;;;;;;;15.79;82.89;100812.63;5053863;28;20025;-50
2023/07/02 06:26:48;;;;;;;25.77;9.70;;;;;;;15.86;81.83;100818.78;5053507;28;20155;-46
2023/07/02 06:29:14;;;;;;;26.30;11.18;;;;;;;15.90;81.63;100820.53;5054205;28;20025;-49
2023/07/02 06:31:39;;;;;;;22.75;9.80;;;;;;;15.93;80.49;100821.41;5053582;28;20469;-43
2023/07/02 06:34:04;;;;;;;27.98;10.52;;;;;;;15.94;80.01;100824.88;5053434;28;20159;-49
2023/07/02 06:36:30;;;;;;;26.17;10.60;;;;;;;16.09;81.79;100827.59;5053422;28;20021;-43
2023/07/02 06:38:55;;;;;;;27.38;10.55;;;;;;;16.24;81.24;100823.34;5053574;28;20024;-44
2023/07/02 06:41:20;;;;;;;22.17;9.48;;;;;;;16.31;79.36;100822.53;5053314;28;20103;-46
2023/07/02 06:43:46;;;;;;;25.33;9.57;;;;;;;16.35;79.29;100818.22;5053654;28;20025;-48
2023/07/02 06:46:12;;;;;;;22.85;9.77;;;;;;;16.43;79.38;100825.16;5053277;28;20409;-47
2023/07/02 06:48:37;;;;;;;27.65;9.75;;;;;;;16.49;77.72;100826.06;5052871;28;20036;-49
2023/07/02 06:51:02;;;;;;;24.83;9.13;;;;;;;16.43;75.71;100827.75;5053588;28;20062;-46
2023/07/02 06:53:28;;;;;;;22.27;9.35;;;;;;;16.53;76.29;100835.66;5053279;28;20116;-45
2023/07/02 06:55:53;;;;;;;22.75;9.23;;;;;;;16.69;78.19;100842.63;5053238;28;20107;-47
2023/07/02 06:58:19;;;;;;;19.98;8.45;;;;;;;16.71;75.67;100843.53;5053372;28;20021;-46
2023/07/02 07:00:45;;;;;;;21.63;8.57;;;;;;;16.83;75.88;100841.84;5052798;28;20469;-48
2023/07/02 07:03:10;;;;;;;17.92;7.97;;;;;;;16.79;73.46;100849.63;5053006;28;20040;-44
2023/07/02 07:05:35;;;;;;;22.33;8.65;;;;;;;16.78;71.40;100849.63;5053167;28;20025;-48
2023/07/02 07:08:01;;;;;;;22.70;9.00;;;;;;;16.93;72.31;100854.06;5053408;28;20082;-45
2023/07/02 07:10:26;;;;;;;17.88;8.63;;;;;;;16.96;72.98;100854.06;5052722;28;20045;-45
2023/07/02 07:12:51;;;;;;;25.85;9.77;;;;;;;16.93;70.59;100856.66;5053376;28;20071;-44
2023/07/02 07:15:17;;;;;;;24.40;8.25;;;;;;;16.83;68.40;100857.47;5052509;28;20046;-48
2023/07/02 07:17:42;;;;;;;23.90;8.30;;;;;;;17.03;70.45;100858.44;5052843;28;20028;-45
2023/07/02 07:20:08;;;;;;;24.60;8.98;;;;;;;17.00;71.20;100866.22;5053267;28;20024;-48
2023/07/02 07:22:34;;;;;;;20.63;8.55;;;;;;;17.07;70.47;100862.78;5052031;28;20041;-47
2023/07/02 07:24:59;;;;;;;23.23;8.38;;;;;;;17.11;69.39;100869.72;5053190;28;20083;-46
2023/07/02 07:27:24;;;;;;;22.50;8.43;;;;;;;17.08;68.89;100864.53;5052947;28;20365;-44
2023/07/02 07:29:50;;;;;;;19.48;8.40;;;;;;;17.15;69.33;100869.75;5052209;28;20496;-49
2023/07/02 07:32:16;;;;;;;21.05;8.30;;;;;;;17.18;68.71;100880.16;5052991;28;20025;-49
2023/07/02 07:34:42;;;;;;;21.23;9.13;;;;;;;17.22;68.00;100879.31;5052399;28;20064;-47
2023/07/02 07:37:07;;;;;;;26.13;8.75;;;;;;;17.31;69.11;100879.31;5052183;28;20063;-48
2023/07/02 07:39:32;;;;;;;17.42;7.93;;;;;;;17.35;70.24;100883.69;5052670;28;20029;-48
2023/07/02 07:41:58;;;;;;;21.75;8.38;;;;;;;17.38;67.54;100891.50;5052718;28;20052;-44
2023/07/02 07:44:23;;;;;;;26.23;8.02;;;;;;;17.35;66.53;100890.63;5051886;28;20025;-46
2023/07/02 07:46:48;;;;;;;19.98;7.43;;;;;;;17.40;66.21;100892.38;5052590;28;20032;-48
2023/07/02 07:49:14;;;;;;;15.25;7.40;;;;;;;17.75;69.38;100895.88;5045735;28;20408;-49
2023/07/02 07:51:39;;;;;;;17.27;7.40;;;;;;;17.51;65.09;100899.34;5049162;28;20108;-47
2023/07/02 07:54:04;;;;;;;23.48;7.88;;;;;;;17.39;65.39;100890.66;5052503;28;20025;-48
2023/07/02 07:56:30;;;;;;;19.48;8.27;;;;;;;17.34;66.25;100900.19;5051946;28;20096;-46
2023/07/02 07:58:55;;;;;;;20.70;8.35;;;;;;;17.31;64.33;100896.69;5051557;28;20508;-48
2023/07/02 08:01:20;;;;;;;18.65;7.57;;;;;;;17.25;64.58;100902.78;5052548;28;20064;-47
2023/07/02 08:03:46;;;;;;;17.92;7.55;;;;;;;17.27;64.16;100901.91;5051848;28;20029;-48
2023/07/02 08:06:11;;;;;;;22.38;8.00;;;;;;;17.36;64.17;100901.03;5051918;28;20029;-49
2023/07/02 08:08:37;;;;;;;17.63;7.30;;;;;;;17.53;64.25;100910.63;5052119;28;20017;-47
2023/07/02 08:11:02;;;;;;;20.25;7.18;;;;;;;17.59;63.64;100910.66;5052290;28;20037;-47
2023/07/02 08:13:28;;;;;;;20.00;7.35;;;;;;;17.74;62.87;100902.84;5051620;28;20488;-48
2023/07/02 08:15:53;;;;;;;18.95;7.35;;;;;;;17.66;62.73;100908.91;5052336;28;20477;-45
2023/07/02 08:18:18;;;;;;;18.52;7.97;;;;;;;17.85;63.52;100910.66;5051747;28;20465;-45
2023/07/02 08:20:44;;;;;;;16.95;7.47;;;;;;;17.89;61.76;100912.41;5051308;28;20029;-48
2023/07/02 08:23:09;;;;;;;20.13;7.80;;;;;;;18.04;62.17;100916.78;5052195;28;20370;-47
2023/07/02 08:25:34;;;;;;;19.33;7.40;;;;;;;18.07;59.31;100924.59;5051194;28;20496;-44
2023/07/02 08:28:00;;;;;;;20.23;7.68;;;;;;;18.18;60.93;100926.34;5052294;28;20036;-45
2023/07/02 08:30:25;;;;;;;16.63;7.30;;;;;;;18.17;60.15;100924.63;5051818;28;20488;-47
2023/07/02 08:32:52;;;;;;;19.17;7.78;;;;;;;18.02;59.67;100923.72;5051305;28;20083;-48
2023/07/02 08:35:18;;;;;;;20.90;8.43;;;;;;;17.98;60.90;100924.59;5049562;28;20044;-48
2023/07/02 08:37:43;;;;;;;17.55;7.85;;;;;;;18.00;61.05;100925.50;5038149;28;20432;-47
2023/07/02 08:40:20;;;;;;;16.50;6.70;;;;;;;18.28;63.09;100930.69;5051574;28;20029;-46
2023/07/02 08:42:49;;;;;;;17.40;7.03;;;;;;;18.47;57.98;100933.28;5050166;28;20036;-47
2023/07/02 08:45:16;;;;;;;17.23;7.28;;;;;;;18.19;57.09;100939.41;5050074;28;20413;-47
2023/07/02 08:47:42;;;;;;;20.50;7.83;;;;;;;18.37;58.21;100935.91;5048242;28;20033;-42
2023/07/02 08:50:08;;;;;;;15.02;6.88;;;;;;;18.49;56.64;100939.34;5044107;28;20469;-48
2023/07/02 08:52:34;;;;;;;17.45;7.50;;;;;;;18.30;54.63;100946.34;5051596;28;20032;-48
2023/07/02 08:54:59;;;;;;;16.10;7.65;;;;;;;18.24;56.21;100942.88;5050629;28;20354;-48
2023/07/02 08:57:24;;;;;;;18.95;7.55;;;;;;;18.19;56.23;100941.13;5051022;28;20381;-47
2023/07/02 08:59:51;;;;;;;16.10;7.43;;;;;;;18.15;60.24;100937.63;5051620;28;20530;-48
2023/07/02 09:02:16;;;;;;;19.65;7.88;;;;;;;17.83;58.69;100940.22;5051244;28;20056;-47
2023/07/02 09:04:42;;;;;;;17.67;7.53;;;;;;;17.61;58.68;100933.25;5045751;28;20477;-46
2023/07/02 09:07:09;;;;;;;17.00;7.28;;;;;;;17.87;60.40;100936.72;5034572;28;20068;-48
2023/07/02 09:09:48;;;;;;;22.58;7.72;;;;;;;18.31;59.26;100929.81;5033480;28;20021;-47
2023/07/02 09:12:31;;;;;;;18.38;7.50;;;;;;;18.69;56.97;100937.56;5035393;28;20116;-47
2023/07/02 09:15:00;;;;;;;18.15;7.05;;;;;;;18.97;57.13;100944.50;5034588;28;20488;-47
2023/07/02 09:17:30;;;;;;;18.63;7.80;;;;;;;18.67;56.25;100941.94;5035303;28;20029;-46
2023/07/02 09:19:56;;;;;;;22.33;7.82;;;;;;;18.52;59.36;100940.22;5034981;28;20528;-42
2023/07/02 09:22:21;;;;;;;19.13;7.70;;;;;;;18.31;60.02;100943.75;5034609;28;20045;-48
2023/07/02 09:24:54;;;;;;;18.50;8.30;;;;;;;18.06;60.80;100950.69;5035000;28;20029;-47
2023/07/02 09:27:20;;;;;;;21.15;8.13;;;;;;;17.89;61.57;100940.22;5034940;28;20034;-47
2023/07/02 09:29:52;;;;;;;20.20;8.40;;;;;;;17.85;59.20;100941.94;5034177;28;20018;-47
2023/07/02 09:32:24;;;;;;;19.25;8.40;;;;;;;18.24;59.50;100936.78;5035227;28;20029;-46
2023/07/02 09:34:50;;;;;;;20.45;7.13;;;;;;;18.66;57.00;100937.59;5034827;28;20025;-47
2023/07/02 09:37:16;;;;;;;18.05;7.28;;;;;;;19.21;56.51;100940.91;5034618;28;20033;-47
2023/07/02 09:39:42;;;;;;;21.10;7.70;;;;;;;19.65;56.49;100929.34;5034575;28;20024;-49
2023/07/02 09:42:09;;;;;;;18.27;6.85;;;;;;;19.50;56.02;100929.44;5034686;28;20051;-45
2023/07/02 09:44:35;;;;;;;21.17;8.50;;;;;;;19.46;55.23;100922.47;5034155;28;20540;-47
2023/07/02 09:47:03;;;;;;;21.10;7.25;;;;;;;19.22;55.53;100933.06;5035061;28;20033;-45
2023/07/02 09:49:33;;;;;;;16.50;7.40;;;;;;;19.04;53.77;100936.63;5034525;28;20022;-47
2023/07/02 09:52:01;;;;;;;19.30;8.18;;;;;;;18.81;53.48;100931.47;5034305;28;20545;-47
2023/07/02 09:54:27;;;;;;;17.92;7.55;;;;;;;18.88;57.05;100940.13;5034450;28;20380;-45
2023/07/02 09:56:53;;;;;;;24.03;8.47;;;;;;;18.79;55.63;100942.78;5034780;28;20026;-44
2023/07/02 09:59:19;;;;;;;17.50;7.13;;;;;;;18.79;56.89;100940.19;5034236;28;20100;-47
2023/07/02 10:01:44;;;;;;;21.95;9.00;;;;;;;18.76;56.23;100939.31;5034321;28;20469;-46
2023/07/02 10:04:14;;;;;;;20.00;8.05;;;;;;;18.79;58.49;100948.88;5034068;28;20033;-44
2023/07/02 10:06:47;;;;;;;19.13;7.43;;;;;;;18.65;57.13;100951.50;5034188;28;20048;-49
2023/07/02 10:09:12;;;;;;;21.48;7.32;;;;;;;18.53;57.31;100960.22;5034402;28;20029;-49
2023/07/02 10:11:37;;;;;;;20.73;7.97;;;;;;;18.55;59.78;100955.91;5033751;28;20025;-49
2023/07/02 10:14:02;;;;;;;16.38;7.95;;;;;;;18.30;57.61;100956.78;5034505;28;20072;-48
2023/07/02 10:16:31;;;;;;;19.65;7.18;;;;;;;18.36;58.36;100961.97;5033820;28;20105;-49
2023/07/02 10:19:08;;;;;;;22.13;7.65;;;;;;;18.17;58.65;100966.38;5033688;28;20366;-48
2023/07/02 10:21:33;;;;;;;22.23;8.20;;;;;;;17.96;58.54;100969.81;5032968;28;20033;-48
2023/07/02 10:24:11;;;;;;;17.25;7.75;;;;;;;17.71;62.13;100972.34;5034246;28;20075;-50
2023/07/02 10:26:36;;;;;;;23.17;8.25;;;;;;;17.44;62.95;100974.00;5033584;28;20059;-49
2023/07/02 10:29:02;;;;;;;18.75;7.70;;;;;;;17.19;64.88;100973.91;5034163;28;20029;-48
2023/07/02 10:31:28;;;;;;;24.45;9.35;;;;;;;17.24;63.88;100972.19;5033575;28;20030;-48
2023/07/02 10:33:54;;;;;;;22.30;9.30;;;;;;;17.58;64.55;100968.84;5033406;28;20080;-46
2023/07/02 10:36:21;;;;;;;19.45;7.95;;;;;;;17.35;62.04;100981.78;5034149;28;20030;-47
2023/07/02 10:38:47;;;;;;;20.70;8.05;;;;;;;17.43;62.36;100980.09;5033517;28;20108;-46
2023/07/02 10:41:24;;;;;;;21.90;8.60;;;;;;;17.34;61.53;100982.66;5033154;28;20452;-45
2023/07/02 10:43:49;;;;;;;21.63;8.60;;;;;;;18.37;59.58;100971.56;5033871;28;20136;-48
2023/07/02 10:46:21;;;;;;;20.33;8.80;;;;;;;19.93;55.29;100973.63;5032989;28;20501;-45
2023/07/02 10:48:54;;;;;;;24.98;8.77;;;;;;;21.35;49.80;100977.44;5033685;28;20082;-47
2023/07/02 10:51:21;;;;;;;20.15;9.10;;;;;;;22.19;45.93;100978.88;5033455;28;20021;-50
2023/07/02 10:53:55;;;;;;;23.92;8.80;;;;;;;22.13;47.53;100976.34;5032824;28;20025;-49
2023/07/02 10:56:20;;;;;;;22.50;8.25;;;;;;;21.54;47.43;100983.34;5033580;28;20021;-49
2023/07/02 10:58:46;;;;;;;22.08;9.52;;;;;;;21.00;47.84;100981.38;5032884;28;20044;-45
2023/07/02 11:01:11;;;;;;;22.75;8.65;;;;;;;20.28;49.50;100989.94;5032802;28;20037;-45
2023/07/02 11:03:37;;;;;;;21.65;9.02;;;;;;;19.71;51.44;100980.72;5033037;28;20369;-50